createdAt,value
2022-08-25T00:01:57.228Z,27.20
2022-08-25T00:04:24.543Z,27.20
2022-08-25T00:06:52.938Z,27.20
2022-08-25T00:09:21.481Z,27.10
2022-08-25T00:11:49.337Z,27.00
2022-08-25T00:14:22.419Z,27.00
2022-08-25T00:16:49.583Z,27.00
2022-08-25T00:19:22.649Z,27.00
2022-08-25T00:21:49.514Z,26.90
2022-08-25T00:24:18.114Z,26.90
2022-08-25T00:26:48.397Z,26.80
2022-08-25T00:29:15.616Z,26.80
2022-08-25T00:31:43.002Z,26.80
2022-08-25T00:34:12.885Z,26.70
2022-08-25T00:36:39.611Z,26.70
2022-08-25T00:39:09.947Z,26.60
2022-08-25T00:41:37.990Z,26.60
2022-08-25T00:44:07.124Z,26.60
2022-08-25T00:46:41.510Z,26.50
2022-08-25T00:49:46.972Z,26.50
2022-08-25T00:52:17.976Z,26.50
2022-08-25T00:54:52.325Z,26.40
2022-08-25T00:57:34.049Z,26.40
2022-08-25T01:00:06.656Z,26.30
2022-08-25T01:02:33.558Z,26.30
2022-08-25T01:05:00.307Z,26.20
2022-08-25T01:07:26.966Z,26.20
2022-08-25T01:12:32.048Z,26.10
2022-08-25T01:14:59.000Z,26.10
2022-08-25T01:17:28.765Z,26.10
2022-08-25T01:19:57.291Z,26.00
2022-08-25T01:22:26.753Z,26.00
2022-08-25T01:25:12.215Z,25.90
2022-08-25T01:27:38.946Z,25.90
2022-08-25T01:30:06.523Z,25.80
2022-08-25T01:32:34.901Z,25.80
2022-08-25T01:35:01.615Z,25.80
2022-08-25T01:37:28.303Z,25.80
2022-08-25T01:39:55.266Z,25.70
2022-08-25T01:42:43.650Z,25.70
2022-08-25T01:45:10.499Z,25.60
2022-08-25T01:47:38.079Z,25.60
2022-08-25T01:50:06.031Z,25.50
2022-08-25T01:52:38.102Z,25.50
2022-08-25T01:55:05.716Z,25.50
2022-08-25T01:57:32.483Z,25.40
2022-08-25T01:59:59.354Z,25.40
2022-08-25T02:02:26.348Z,25.40
2022-08-25T02:04:53.409Z,25.30
2022-08-25T02:07:20.621Z,25.30
2022-08-25T02:09:47.499Z,25.30
2022-08-25T02:12:14.398Z,25.30
2022-08-25T02:14:41.581Z,25.20
2022-08-25T02:17:08.462Z,25.20
2022-08-25T02:19:35.194Z,25.20
2022-08-25T02:22:02.365Z,25.10
2022-08-25T02:24:29.106Z,25.10
2022-08-25T02:26:55.807Z,25.00
2022-08-25T02:29:22.813Z,25.00
2022-08-25T02:31:49.677Z,25.00
2022-08-25T02:34:16.670Z,25.00
2022-08-25T02:36:43.955Z,24.90
2022-08-25T02:39:11.618Z,24.90
2022-08-25T02:41:39.008Z,24.80
2022-08-25T02:44:06.896Z,24.80
2022-08-25T02:46:33.641Z,24.80
2022-08-25T02:49:00.414Z,24.80
2022-08-25T02:51:31.956Z,24.70
2022-08-25T02:54:02.040Z,24.70
2022-08-25T02:56:29.736Z,24.60
2022-08-25T02:58:57.105Z,24.70
2022-08-25T03:01:28.827Z,24.60
2022-08-25T03:03:56.532Z,24.60
2022-08-25T03:06:24.329Z,24.60
2022-08-25T03:08:52.211Z,24.50
2022-08-25T03:11:19.191Z,24.50
2022-08-25T03:13:46.041Z,24.40
2022-08-25T03:16:13.005Z,24.40
2022-08-25T03:18:41.535Z,24.40
2022-08-25T03:21:10.249Z,24.30
2022-08-25T03:23:37.434Z,24.30
2022-08-25T03:26:22.953Z,24.30
2022-08-25T03:28:49.657Z,24.30
2022-08-25T03:31:16.536Z,24.30
2022-08-25T03:33:43.336Z,24.20
2022-08-25T03:36:12.217Z,24.20
2022-08-25T03:38:39.982Z,24.20
2022-08-25T03:41:21.299Z,24.20
2022-08-25T03:43:48.911Z,24.20
2022-08-25T03:46:27.409Z,24.10
2022-08-25T03:48:54.362Z,24.10
2022-08-25T03:51:27.412Z,24.00
2022-08-25T03:53:54.830Z,24.00
2022-08-25T03:56:21.619Z,24.30
2022-08-25T03:58:48.863Z,24.00
2022-08-25T04:01:16.707Z,23.90
2022-08-25T04:03:45.442Z,23.90
2022-08-25T04:06:12.311Z,23.80
2022-08-25T04:08:39.254Z,23.90
2022-08-25T04:11:20.233Z,23.80
2022-08-25T04:13:48.044Z,23.70
2022-08-25T04:16:17.298Z,23.70
2022-08-25T04:18:45.076Z,23.70
2022-08-25T04:21:12.968Z,23.70
2022-08-25T04:23:41.701Z,23.70
2022-08-25T04:26:13.277Z,23.40
2022-08-25T04:28:40.947Z,23.60
2022-08-25T04:31:12.018Z,23.60
2022-08-25T04:33:39.154Z,23.60
2022-08-25T04:36:11.966Z,23.60
2022-08-25T04:38:40.373Z,23.50
2022-08-25T04:41:07.943Z,23.50
2022-08-25T04:43:35.950Z,23.40
2022-08-25T04:46:08.174Z,23.40
2022-08-25T04:48:35.238Z,23.40
2022-08-25T04:51:06.909Z,23.40
2022-08-25T04:53:34.667Z,23.40
2022-08-25T04:56:03.825Z,23.30
2022-08-25T04:58:31.008Z,23.30
2022-08-25T05:01:05.409Z,23.30
2022-08-25T05:03:32.463Z,23.30
2022-08-25T05:05:59.691Z,23.20
2022-08-25T05:08:26.498Z,23.20
2022-08-25T05:10:55.017Z,23.20
2022-08-25T05:13:22.874Z,23.10
2022-08-25T05:15:57.658Z,23.10
2022-08-25T05:18:28.947Z,23.10
2022-08-25T05:20:56.599Z,23.10
2022-08-25T05:23:25.277Z,23.00
2022-08-25T05:25:53.059Z,23.00
2022-08-25T05:28:21.019Z,23.00
2022-08-25T05:30:51.511Z,23.00
2022-08-25T05:33:18.461Z,23.00
2022-08-25T05:35:55.716Z,23.00
2022-08-25T05:38:22.845Z,23.00
2022-08-25T05:41:02.092Z,23.00
2022-08-25T05:43:29.607Z,23.00
2022-08-25T05:45:58.170Z,22.90
2022-08-25T05:48:25.916Z,22.90
2022-08-25T05:50:54.364Z,22.90
2022-08-25T05:53:22.894Z,22.90
2022-08-25T05:55:51.136Z,22.90
2022-08-25T05:58:18.505Z,22.90
2022-08-25T06:00:45.987Z,22.90
2022-08-25T06:03:12.876Z,22.80
2022-08-25T06:05:39.790Z,22.80
2022-08-25T06:08:06.752Z,22.80
2022-08-25T06:10:34.181Z,22.80
2022-08-25T06:13:01.110Z,22.80
2022-08-25T06:15:28.231Z,22.80
2022-08-25T06:18:00.721Z,22.80
2022-08-25T06:20:30.610Z,22.80
2022-08-25T06:22:58.194Z,22.80
2022-08-25T06:25:26.416Z,22.80
2022-08-25T06:27:54.407Z,22.80
2022-08-25T06:30:28.416Z,22.80
2022-08-25T06:32:56.089Z,22.80
2022-08-25T06:35:23.340Z,22.90
2022-08-25T06:37:50.114Z,23.00
2022-08-25T06:40:17.289Z,23.10
2022-08-25T06:42:48.529Z,23.10
2022-08-25T06:45:15.820Z,23.10
2022-08-25T06:47:42.917Z,23.10
2022-08-25T06:50:12.729Z,23.10
2022-08-25T06:52:39.602Z,23.20
2022-08-25T06:55:06.858Z,23.20
2022-08-25T06:57:35.863Z,23.30
2022-08-25T07:00:05.937Z,23.30
2022-08-25T07:02:35.415Z,23.40
2022-08-25T07:05:02.981Z,23.50
2022-08-25T07:07:43.248Z,23.60
2022-08-25T07:10:11.257Z,23.60
2022-08-25T07:12:38.037Z,23.70
2022-08-25T07:15:21.200Z,23.80
2022-08-25T07:17:48.721Z,23.90
2022-08-25T07:20:16.926Z,24.00
2022-08-25T07:22:46.241Z,24.10
2022-08-25T07:25:13.235Z,24.20
2022-08-25T07:27:41.276Z,24.30
2022-08-25T07:30:11.373Z,24.50
2022-08-25T07:32:42.160Z,24.60
2022-08-25T07:35:19.176Z,24.70
2022-08-25T07:37:49.821Z,24.80
2022-08-25T07:40:22.608Z,25.00
2022-08-25T07:42:52.352Z,25.10
2022-08-25T07:45:21.013Z,25.20
2022-08-25T07:47:48.434Z,25.30
2022-08-25T07:50:18.964Z,25.40
2022-08-25T07:52:52.065Z,25.60
2022-08-25T07:55:21.996Z,25.60
2022-08-25T07:57:50.927Z,25.80
2022-08-25T08:00:22.613Z,25.80
2022-08-25T08:02:51.451Z,26.00
2022-08-25T08:05:18.366Z,26.10
2022-08-25T08:07:45.079Z,26.20
2022-08-25T08:13:01.866Z,26.40
2022-08-25T08:15:29.602Z,26.50
2022-08-25T08:17:58.009Z,26.60
2022-08-25T08:20:24.999Z,26.70
2022-08-25T08:22:51.768Z,26.80
2022-08-25T08:25:21.157Z,26.90
2022-08-25T08:27:48.834Z,27.00
2022-08-25T08:30:15.809Z,27.10
2022-08-25T08:33:06.399Z,27.30
2022-08-25T08:35:30.727Z,27.30
2022-08-25T08:37:57.545Z,27.40
2022-08-25T08:40:24.631Z,27.60
2022-08-25T08:43:13.272Z,27.60
2022-08-25T08:45:50.455Z,27.70
2022-08-25T08:48:29.164Z,27.80
2022-08-25T08:51:20.432Z,28.00
2022-08-25T08:53:57.524Z,28.10
2022-08-25T08:56:31.677Z,28.20
2022-08-25T08:59:14.364Z,28.20
2022-08-25T09:01:59.125Z,28.40
2022-08-25T09:05:03.226Z,28.50
2022-08-25T09:07:39.150Z,28.60
2022-08-25T09:10:11.212Z,28.70
2022-08-25T09:12:48.113Z,28.80
2022-08-25T09:16:23.358Z,28.90
2022-08-25T09:19:23.519Z,28.90
2022-08-25T09:21:53.284Z,29.10
2022-08-25T09:24:23.726Z,29.20
2022-08-25T09:27:15.423Z,29.30
2022-08-25T09:30:21.212Z,29.40
2022-08-25T09:32:55.069Z,29.50
2022-08-25T09:35:26.284Z,29.60
2022-08-25T09:38:04.698Z,29.70
2022-08-25T09:40:34.664Z,29.70
2022-08-25T09:43:05.653Z,29.80
2022-08-25T09:45:42.389Z,29.90
2022-08-25T09:48:28.649Z,30.00
2022-08-25T09:51:00.978Z,30.10
2022-08-25T09:53:29.003Z,30.10
2022-08-25T09:56:04.960Z,30.20
2022-08-25T09:58:32.300Z,30.30
2022-08-25T10:01:22.431Z,30.40
2022-08-25T10:03:57.878Z,30.50
2022-08-25T10:06:27.015Z,30.50
2022-08-25T10:08:58.087Z,30.60
2022-08-25T10:11:37.495Z,30.60
2022-08-25T10:14:25.754Z,30.70
2022-08-25T10:16:53.408Z,30.80
2022-08-25T10:19:23.527Z,30.80
2022-08-25T10:22:05.989Z,30.90
2022-08-25T10:24:33.560Z,31.00
2022-08-25T10:27:15.019Z,31.10
2022-08-25T10:30:13.367Z,31.10
2022-08-25T10:32:54.748Z,31.20
2022-08-25T10:35:43.896Z,31.30
2022-08-25T10:38:22.589Z,31.40
2022-08-25T10:41:13.202Z,31.50
2022-08-25T10:44:32.162Z,31.50
2022-08-25T10:47:20.649Z,31.60
2022-08-25T10:49:57.094Z,31.60
2022-08-25T10:55:07.119Z,31.80
2022-08-25T10:58:16.271Z,31.90
2022-08-25T11:01:28.067Z,31.90
2022-08-25T11:04:01.911Z,32.00
2022-08-25T11:07:04.491Z,32.10
2022-08-25T11:09:36.643Z,32.10
2022-08-25T11:12:10.682Z,32.20
2022-08-25T11:14:40.875Z,32.20
2022-08-25T11:17:17.723Z,32.20
2022-08-25T11:19:53.175Z,32.30
2022-08-25T11:22:44.606Z,32.40
2022-08-25T11:25:31.748Z,32.40
2022-08-25T11:28:26.467Z,32.50
2022-08-25T11:30:54.108Z,32.50
2022-08-25T11:33:22.055Z,32.50
2022-08-25T11:36:13.322Z,32.60
2022-08-25T11:39:34.464Z,32.60
2022-08-25T11:42:20.913Z,32.70
2022-08-25T11:44:53.829Z,32.80
2022-08-25T11:47:27.777Z,32.80
2022-08-25T11:50:00.924Z,32.90
2022-08-25T11:52:34.803Z,33.00
2022-08-25T11:55:16.946Z,33.00
2022-08-25T11:57:45.572Z,33.00
2022-08-25T12:00:37.013Z,33.10
2022-08-25T12:03:31.756Z,33.20
2022-08-25T12:06:13.994Z,33.30
2022-08-25T12:08:49.700Z,33.30
2022-08-25T12:11:38.804Z,33.40
2022-08-25T12:14:24.654Z,33.40
2022-08-25T12:16:55.144Z,33.50
2022-08-25T12:19:38.032Z,33.60
2022-08-25T12:22:04.919Z,33.60
2022-08-25T12:24:48.007Z,33.70
2022-08-25T12:28:09.463Z,33.70
2022-08-25T12:30:59.082Z,33.80
2022-08-25T12:33:34.715Z,33.80
2022-08-25T12:36:11.374Z,33.90
2022-08-25T12:38:49.627Z,33.90
2022-08-25T12:41:22.186Z,33.90
2022-08-25T12:43:53.309Z,34.00
2022-08-25T12:46:20.154Z,34.00
2022-08-25T12:49:00.360Z,34.10
2022-08-25T12:51:35.896Z,34.10
2022-08-25T12:54:37.967Z,34.10
2022-08-25T12:57:43.333Z,34.20
2022-08-25T13:00:20.237Z,34.30
2022-08-25T13:03:17.551Z,34.30
2022-08-25T13:06:06.168Z,34.30
2022-08-25T13:08:38.887Z,34.40
2022-08-25T13:11:20.428Z,34.40
2022-08-25T13:14:07.558Z,34.50
2022-08-25T13:16:37.256Z,34.50
2022-08-25T13:19:06.729Z,34.60
2022-08-25T13:21:41.834Z,34.60
2022-08-25T13:24:28.220Z,34.70
2022-08-25T13:26:58.217Z,34.80
2022-08-25T13:29:29.379Z,34.80
2022-08-25T13:32:09.667Z,34.80
2022-08-25T13:34:42.844Z,34.80
2022-08-25T13:37:32.490Z,34.80
2022-08-25T13:40:11.452Z,34.80
2022-08-25T13:42:42.446Z,34.80
2022-08-25T13:45:14.983Z,34.90
2022-08-25T13:47:43.586Z,34.90
2022-08-25T13:50:19.933Z,34.90
2022-08-25T13:53:16.136Z,34.90
2022-08-25T13:55:52.230Z,34.90
2022-08-25T13:58:39.005Z,34.90
2022-08-25T14:01:48.874Z,34.90
2022-08-25T14:04:29.312Z,34.90
2022-08-25T14:07:33.810Z,34.80
2022-08-25T14:10:44.593Z,34.80
2022-08-25T14:13:38.176Z,34.80
2022-08-25T14:16:22.619Z,34.80
2022-08-25T14:18:54.856Z,34.80
2022-08-25T14:21:27.750Z,34.80
2022-08-25T14:23:55.352Z,34.80
2022-08-25T14:26:22.265Z,34.70
2022-08-25T14:28:49.609Z,34.80
2022-08-25T14:31:43.853Z,34.70
2022-08-25T14:34:17.079Z,34.70
2022-08-25T14:36:44.824Z,34.70
2022-08-25T14:39:11.957Z,34.60
2022-08-25T14:41:45.321Z,34.60
2022-08-25T14:44:20.255Z,34.50
2022-08-25T14:46:52.411Z,34.50
2022-08-25T14:49:25.000Z,34.40
2022-08-25T14:51:51.970Z,34.40
2022-08-25T14:54:20.339Z,34.40
2022-08-25T14:56:48.494Z,34.30
2022-08-25T14:59:15.515Z,34.30
2022-08-25T15:01:42.447Z,34.40
2022-08-25T15:04:16.167Z,34.40
2022-08-25T15:06:44.807Z,34.40
2022-08-25T15:09:13.834Z,34.40
2022-08-25T15:11:45.900Z,34.50
2022-08-25T15:14:15.549Z,34.60
2022-08-25T15:16:50.629Z,34.60
2022-08-25T15:19:20.296Z,34.60
2022-08-25T15:21:48.259Z,34.60
2022-08-25T15:24:17.499Z,34.60
2022-08-25T15:26:58.621Z,34.60
2022-08-25T15:29:29.218Z,34.60
2022-08-25T15:31:56.635Z,34.60
2022-08-25T15:34:23.480Z,34.60
2022-08-25T15:36:50.860Z,34.60
2022-08-25T15:39:19.161Z,34.70
2022-08-25T15:41:49.415Z,34.60
2022-08-25T15:44:16.733Z,34.60
2022-08-25T15:46:46.923Z,34.70
2022-08-25T15:49:20.757Z,34.70
2022-08-25T15:51:52.334Z,34.70
2022-08-25T15:54:20.136Z,34.70
2022-08-25T15:56:47.214Z,34.70
2022-08-25T15:59:14.478Z,34.70
2022-08-25T16:01:41.832Z,34.70
2022-08-25T16:04:08.525Z,34.80
2022-08-25T16:06:35.290Z,34.70
2022-08-25T16:09:02.310Z,34.70
2022-08-25T16:11:30.999Z,34.70
2022-08-25T16:13:58.022Z,34.60
2022-08-25T16:16:27.020Z,34.60
2022-08-25T16:18:54.103Z,34.50
2022-08-25T16:21:29.063Z,34.50
2022-08-25T16:24:01.205Z,34.50
2022-08-25T16:26:30.585Z,34.40
2022-08-25T16:28:57.429Z,34.40
2022-08-25T16:31:24.696Z,34.30
2022-08-25T16:33:54.747Z,34.30
2022-08-25T16:36:27.103Z,34.30
2022-08-25T16:38:56.047Z,34.20
2022-08-25T16:41:25.449Z,34.20
2022-08-25T16:43:52.419Z,34.20
2022-08-25T16:46:21.164Z,34.20
2022-08-25T16:48:48.759Z,34.10
2022-08-25T16:51:19.257Z,34.00
2022-08-25T16:54:07.756Z,34.00
2022-08-25T16:56:36.080Z,34.00
2022-08-25T16:59:04.564Z,33.90
2022-08-25T17:01:36.457Z,34.00
2022-08-25T17:04:05.483Z,33.90
2022-08-25T17:06:36.028Z,33.80
2022-08-25T17:09:03.219Z,33.80
2022-08-25T17:11:32.920Z,33.70
2022-08-25T17:14:01.812Z,33.70
2022-08-25T17:16:35.648Z,33.60
2022-08-25T17:19:05.875Z,33.60
2022-08-25T17:21:36.032Z,33.60
2022-08-25T17:24:04.854Z,33.50
2022-08-25T17:26:31.862Z,33.50
2022-08-25T17:29:01.806Z,33.50
2022-08-25T17:31:29.967Z,33.40
2022-08-25T17:33:57.518Z,33.40
2022-08-25T17:36:26.863Z,33.30
2022-08-25T17:38:54.535Z,33.30
2022-08-25T17:41:21.325Z,33.30
2022-08-25T17:43:48.080Z,33.30
2022-08-25T17:46:15.352Z,33.20
2022-08-25T17:48:43.772Z,33.20
2022-08-25T17:51:11.542Z,33.10
2022-08-25T17:53:39.435Z,33.10
2022-08-25T17:56:09.870Z,33.10
2022-08-25T17:58:37.085Z,33.10
2022-08-25T18:01:04.359Z,33.00
2022-08-25T18:03:32.244Z,33.00
2022-08-25T18:05:59.226Z,33.00
2022-08-25T18:08:31.986Z,33.00
2022-08-25T18:11:02.169Z,32.90
2022-08-25T18:13:29.711Z,33.00
2022-08-25T18:15:56.429Z,32.90
2022-08-25T18:18:24.242Z,32.90
2022-08-25T18:20:51.281Z,32.90
2022-08-25T18:23:20.048Z,32.80
2022-08-25T18:25:49.148Z,32.70
2022-08-25T18:28:16.540Z,32.70
2022-08-25T18:30:43.282Z,32.70
2022-08-25T18:33:10.117Z,32.70
2022-08-25T18:35:36.905Z,32.60
2022-08-25T18:38:24.067Z,32.60
2022-08-25T18:41:04.954Z,32.50
2022-08-25T18:43:33.866Z,32.40
2022-08-25T18:46:01.611Z,32.40
2022-08-25T18:48:28.413Z,32.40
2022-08-25T18:50:56.798Z,32.30
2022-08-25T18:53:36.775Z,32.20
2022-08-25T18:56:04.622Z,32.10
2022-08-25T18:58:31.458Z,32.10
2022-08-25T19:00:58.206Z,32.00
2022-08-25T19:03:25.308Z,32.00
2022-08-25T19:05:57.219Z,32.00
2022-08-25T19:08:24.867Z,31.90
2022-08-25T19:10:53.578Z,31.90
2022-08-25T19:13:22.745Z,31.80
2022-08-25T19:15:51.267Z,31.80
2022-08-25T19:18:19.255Z,31.60
2022-08-25T19:20:52.878Z,31.60
2022-08-25T19:23:19.789Z,31.60
2022-08-25T19:25:46.688Z,31.50
2022-08-25T19:28:14.028Z,31.50
2022-08-25T19:30:50.166Z,31.40
2022-08-25T19:33:42.763Z,31.40
2022-08-25T19:36:08.750Z,31.30
2022-08-25T19:38:36.365Z,31.30
2022-08-25T19:41:13.825Z,31.20
2022-08-25T19:43:55.549Z,31.10
2022-08-25T19:46:33.426Z,31.10
2022-08-25T19:49:08.759Z,31.00
2022-08-25T19:51:45.225Z,31.00
2022-08-25T19:54:20.073Z,30.90
2022-08-25T19:56:54.607Z,30.90
2022-08-25T19:59:36.619Z,30.70
2022-08-25T20:02:21.219Z,30.70
2022-08-25T20:04:50.380Z,30.70
2022-08-25T20:07:18.993Z,30.60
2022-08-25T20:09:45.840Z,30.60
2022-08-25T20:14:45.199Z,30.60
2022-08-25T20:17:23.009Z,30.50
2022-08-25T20:19:52.548Z,30.40
2022-08-25T20:22:22.507Z,30.30
2022-08-25T20:24:56.225Z,30.30
2022-08-25T20:27:37.616Z,30.20
2022-08-25T20:30:11.059Z,30.10
2022-08-25T20:32:37.853Z,30.10
2022-08-25T20:35:09.305Z,30.00
2022-08-25T20:37:36.347Z,30.00
2022-08-25T20:40:05.824Z,29.90
2022-08-25T20:42:32.628Z,29.80
2022-08-25T20:45:01.656Z,29.80
2022-08-25T20:47:28.439Z,29.70
2022-08-25T20:49:55.256Z,29.70
2022-08-25T20:52:22.020Z,29.60
2022-08-25T20:54:50.363Z,29.50
2022-08-25T20:57:24.413Z,29.50
2022-08-25T20:59:52.821Z,29.40
2022-08-25T21:02:20.133Z,29.40
2022-08-25T21:04:50.050Z,29.30
2022-08-25T21:07:19.797Z,29.30
2022-08-25T21:09:47.940Z,29.20
2022-08-25T21:12:14.742Z,29.20
2022-08-25T21:14:42.420Z,29.10
2022-08-25T21:17:13.312Z,29.10
2022-08-25T21:19:41.816Z,29.00
2022-08-25T21:22:09.674Z,28.90
2022-08-25T21:24:38.405Z,28.90
2022-08-25T21:27:05.399Z,28.90
2022-08-25T21:29:33.076Z,28.80
2022-08-25T21:32:00.107Z,28.80
2022-08-25T21:34:28.818Z,28.70
2022-08-25T21:36:59.377Z,28.70
2022-08-25T21:39:28.674Z,28.70
2022-08-25T21:41:56.524Z,28.60
2022-08-25T21:44:23.599Z,28.50
2022-08-25T21:46:54.181Z,28.50
2022-08-25T21:49:22.122Z,28.40
2022-08-25T21:51:59.233Z,28.40
2022-08-25T21:54:26.525Z,28.40
2022-08-25T21:56:59.567Z,28.30
2022-08-25T21:59:29.358Z,28.30
2022-08-25T22:01:57.563Z,28.20
2022-08-25T22:04:24.966Z,28.10
2022-08-25T22:06:51.690Z,28.10
2022-08-25T22:09:18.408Z,28.10
2022-08-25T22:11:45.971Z,28.00
2022-08-25T22:14:14.509Z,28.00
2022-08-25T22:16:42.399Z,28.00
2022-08-25T22:19:11.094Z,27.90
2022-08-25T22:21:38.802Z,27.90
2022-08-25T22:24:05.719Z,27.80
2022-08-25T22:26:34.050Z,27.80
2022-08-25T22:29:01.855Z,27.70
2022-08-25T22:31:29.262Z,27.70
2022-08-25T22:33:57.644Z,27.70
2022-08-25T22:36:30.850Z,27.60
2022-08-25T22:38:58.467Z,27.60
2022-08-25T22:41:27.107Z,27.50
2022-08-25T22:43:55.430Z,27.50
2022-08-25T22:46:23.147Z,27.50
2022-08-25T22:48:51.476Z,27.40
2022-08-25T22:51:24.334Z,27.40
2022-08-25T22:53:51.276Z,27.30
2022-08-25T22:56:32.411Z,27.30
2022-08-25T22:59:01.154Z,27.30
2022-08-25T23:01:28.105Z,27.20
2022-08-25T23:03:55.368Z,27.20
2022-08-25T23:06:25.019Z,27.10
2022-08-25T23:08:53.560Z,27.10
2022-08-25T23:11:21.369Z,27.10
2022-08-25T23:13:48.050Z,27.00
2022-08-25T23:16:15.359Z,27.00
2022-08-25T23:18:44.739Z,27.00
2022-08-25T23:21:35.105Z,26.90
2022-08-25T23:24:05.770Z,27.00
2022-08-25T23:26:36.472Z,26.90
2022-08-25T23:29:17.838Z,26.80
2022-08-25T23:31:46.600Z,26.70
2022-08-25T23:34:14.455Z,26.70
2022-08-25T23:36:41.189Z,26.70
2022-08-25T23:39:09.327Z,26.60
2022-08-25T23:41:36.922Z,26.60
2022-08-25T23:44:05.525Z,26.60
2022-08-25T23:46:35.051Z,26.50
2022-08-25T23:49:04.068Z,26.50
2022-08-25T23:51:33.932Z,26.50
2022-08-25T23:54:09.259Z,26.40
2022-08-25T23:56:44.521Z,26.40
2022-08-25T23:59:18.221Z,26.30
